Grieskirchen, Austria
Current Conditions -  °F | °C
As of 1:50 PM on Thursday 30 Oct 2014 (Local Time) from LOWL Reporting Station
Broken Clouds Broken Clouds  
Wind Chill: 52°   Ceiling: 2600
Heat Index: 52°   Visibility: 5mi
Dew Point: 45°   Wind: 6mph
Humidity: 76%   Direction: 320°NW
Pressure: 30.27"   Gusts: NA
Location:  48.23°N, 13.83°E
Report Text: LOWL 301150Z 32005KT 8000 FEW012 BKN026 11/07 Q1025 NOSIG
Loading
Personal Weather Stations






























Interactive Weather Map
Tropical Storm Tracking
New forecast layout! Learn more

10-Day Weather Forecast

Advertisements
Track Severe Weather on mobile